Laramie Regional Airport Laramie US
ICAO: KLAR
IATA: LAR
Category: Medium
Scheduled Services: Yes

Elevation: 7284 ft
TransAlt. 18000 ft.

Airport Communications:
ASOS:135.475
DENVER CNTR:125.9
CASPER RDO:122.6
CTAF/UNICOM:123.05

KLAR Zoom In..

Runways:

(A) RW 03 length 8502 ft width 150 ft
---- / hdg 33

(B) RW 12 length 6300 ft width 100 ft
---- / hdg 122

(C) RW 21 length 8502 ft width 150 ft
---- / hdg 213

(D) RW 30 length 6300 ft width 100 ft
---- / hdg 302

Location; KLAR
Day. 21 / Time. 05.53 Zulu
* Altimeter: 30.30
* Temperature: 18° c. 64.4°f.
* Wind from: 190° Speed 10 kn.
Dewpoint: 09° c.
Visibility: 10 Statute Miles.
Clouds: Clear (automated report).

KLAR 210553Z AUTO 19010KT 10SM CLR 18/09 A3030 RMK AO2 SLP126 T01830089 10300 20183 51013


Wind From 190°
Speed 10 kn.

 
 
jpsmedia.com for Web Design worldairports.se 2018   terms of use